Terminal Aerodrome Forecast
Issued by NWS

Home | Current Version | Previous Version | Text Only | Print | Product List | Glossary Off
Versions: 1 2 3 4 5 6 7 8 9 10 11 12

171
FTUS45 KGGW 211143
TAFSDY
TAF
KSDY 211143Z 2112/2212 12011KT P6SM SCT020
     FM211600 14017G25KT P6SM SCT110
     FM220100 14019G27KT P6SM BKN210 PROB30 2203/2204 6SM -TSRA
      OVC040CB
     FM220400 15012KT P6SM VCTS OVC110CB
     FM220900 20007KT P6SM BKN050
      AMD LTD TO CLD VIS AND WIND=

USA.gov is the U.S. government's official web portal to all federal, state and local government web resources and services.